sensor_id;sensor_type;location;lat;lon;timestamp;temperature;humidity
39849;DHT22;25518;47.878;15.914;2023-07-08T00:02:09;13.10;99.90
39849;DHT22;25518;47.878;15.914;2023-07-08T00:04:59;13.10;99.90
39849;DHT22;25518;47.878;15.914;2023-07-08T00:07:49;13.00;99.90
39849;DHT22;25518;47.878;15.914;2023-07-08T00:10:38;13.00;99.90
39849;DHT22;25518;47.878;15.914;2023-07-08T00:13:28;13.10;99.90
39849;DHT22;25518;47.878;15.914;2023-07-08T00:16:19;13.10;99.90
39849;DHT22;25518;47.878;15.914;2023-07-08T00:19:09;13.00;99.90
39849;DHT22;25518;47.878;15.914;2023-07-08T00:21:59;12.90;99.90
39849;DHT22;25518;47.878;15.914;2023-07-08T00:24:50;12.90;99.90
39849;DHT22;25518;47.878;15.914;2023-07-08T00:27:40;12.90;99.90
39849;DHT22;25518;47.878;15.914;2023-07-08T00:30:31;10.60;99.90
39849;DHT22;25518;47.878;15.914;2023-07-08T00:33:21;12.80;99.90
39849;DHT22;25518;47.878;15.914;2023-07-08T00:36:13;12.80;99.90
39849;DHT22;25518;47.878;15.914;2023-07-08T00:39:12;13.00;99.90
39849;DHT22;25518;47.878;15.914;2023-07-08T00:42:14;12.80;99.90
39849;DHT22;25518;47.878;15.914;2023-07-08T00:46:01;12.70;99.90
39849;DHT22;25518;47.878;15.914;2023-07-08T00:48:25;12.70;99.90
39849;DHT22;25518;47.878;15.914;2023-07-08T00:51:19;12.60;99.90
39849;DHT22;25518;47.878;15.914;2023-07-08T00:54:15;12.60;99.90
39849;DHT22;25518;47.878;15.914;2023-07-08T00:57:05;12.50;99.90
39849;DHT22;25518;47.878;15.914;2023-07-08T01:00:04;11.20;99.90
39849;DHT22;25518;47.878;15.914;2023-07-08T01:02:55;12.50;99.90
39849;DHT22;25518;47.878;15.914;2023-07-08T01:05:46;12.40;99.90
39849;DHT22;25518;47.878;15.914;2023-07-08T01:08:36;12.20;99.90
39849;DHT22;25518;47.878;15.914;2023-07-08T01:11:26;12.30;99.90
39849;DHT22;25518;47.878;15.914;2023-07-08T01:14:18;12.30;99.90
39849;DHT22;25518;47.878;15.914;2023-07-08T01:17:10;12.30;99.90
39849;DHT22;25518;47.878;15.914;2023-07-08T01:20:05;12.20;99.90
39849;DHT22;25518;47.878;15.914;2023-07-08T01:22:55;12.30;99.90
39849;DHT22;25518;47.878;15.914;2023-07-08T01:25:45;12.30;99.90
39849;DHT22;25518;47.878;15.914;2023-07-08T01:28:35;12.40;99.90
39849;DHT22;25518;47.878;15.914;2023-07-08T01:31:24;12.30;99.90
39849;DHT22;25518;47.878;15.914;2023-07-08T01:34:16;12.20;99.90
39849;DHT22;25518;47.878;15.914;2023-07-08T01:37:08;11.90;99.90
39849;DHT22;25518;47.878;15.914;2023-07-08T01:43:11;11.80;99.90
39849;DHT22;25518;47.878;15.914;2023-07-08T01:46:02;11.90;99.90
39849;DHT22;25518;47.878;15.914;2023-07-08T01:48:55;11.90;99.90
39849;DHT22;25518;47.878;15.914;2023-07-08T01:51:47;12.00;99.90
39849;DHT22;25518;47.878;15.914;2023-07-08T01:54:37;11.90;99.90
39849;DHT22;25518;47.878;15.914;2023-07-08T01:57:27;11.70;99.90
39849;DHT22;25518;47.878;15.914;2023-07-08T02:00:16;11.80;99.90
39849;DHT22;25518;47.878;15.914;2023-07-08T02:03:06;11.80;99.90
39849;DHT22;25518;47.878;15.914;2023-07-08T02:05:55;11.90;99.90
39849;DHT22;25518;47.878;15.914;2023-07-08T02:08:45;11.80;99.90
39849;DHT22;25518;47.878;15.914;2023-07-08T02:11:34;11.80;99.90
39849;DHT22;25518;47.878;15.914;2023-07-08T02:14:24;11.80;99.90
39849;DHT22;25518;47.878;15.914;2023-07-08T02:17:14;11.50;99.90
39849;DHT22;25518;47.878;15.914;2023-07-08T02:20:06;11.60;99.90
39849;DHT22;25518;47.878;15.914;2023-07-08T02:22:57;11.50;99.90
39849;DHT22;25518;47.878;15.914;2023-07-08T02:25:51;11.50;99.90
39849;DHT22;25518;47.878;15.914;2023-07-08T02:28:41;11.40;99.90
39849;DHT22;25518;47.878;15.914;2023-07-08T02:31:31;11.60;99.90
39849;DHT22;25518;47.878;15.914;2023-07-08T02:34:20;11.60;99.90
39849;DHT22;25518;47.878;15.914;2023-07-08T02:37:10;11.60;99.90
39849;DHT22;25518;47.878;15.914;2023-07-08T02:40:00;11.50;99.90
39849;DHT22;25518;47.878;15.914;2023-07-08T02:42:50;11.00;99.90
39849;DHT22;25518;47.878;15.914;2023-07-08T02:45:39;11.60;99.90
39849;DHT22;25518;47.878;15.914;2023-07-08T02:48:29;11.50;99.90
39849;DHT22;25518;47.878;15.914;2023-07-08T02:51:19;11.50;99.90
39849;DHT22;25518;47.878;15.914;2023-07-08T02:54:08;11.40;99.90
39849;DHT22;25518;47.878;15.914;2023-07-08T02:56:58;11.10;99.90
39849;DHT22;25518;47.878;15.914;2023-07-08T02:59:47;11.30;99.90
39849;DHT22;25518;47.878;15.914;2023-07-08T03:19:48;11.20;99.90
39849;DHT22;25518;47.878;15.914;2023-07-08T03:22:38;11.20;99.90
39849;DHT22;25518;47.878;15.914;2023-07-08T03:25:27;11.20;99.90
39849;DHT22;25518;47.878;15.914;2023-07-08T03:28:17;11.20;99.90
39849;DHT22;25518;47.878;15.914;2023-07-08T03:31:09;11.30;99.90
39849;DHT22;25518;47.878;15.914;2023-07-08T03:33:59;11.60;99.90
39849;DHT22;25518;47.878;15.914;2023-07-08T03:36:50;11.40;99.90
39849;DHT22;25518;47.878;15.914;2023-07-08T03:39:40;11.30;99.90
39849;DHT22;25518;47.878;15.914;2023-07-08T03:42:29;11.30;99.90
39849;DHT22;25518;47.878;15.914;2023-07-08T03:45:19;11.50;99.90
39849;DHT22;25518;47.878;15.914;2023-07-08T03:48:11;11.60;99.90
39849;DHT22;25518;47.878;15.914;2023-07-08T03:51:00;11.50;99.90
39849;DHT22;25518;47.878;15.914;2023-07-08T03:53:50;11.60;99.90
39849;DHT22;25518;47.878;15.914;2023-07-08T03:56:41;11.70;99.90
39849;DHT22;25518;47.878;15.914;2023-07-08T03:59:31;11.70;99.90
39849;DHT22;25518;47.878;15.914;2023-07-08T04:02:20;11.70;99.90
39849;DHT22;25518;47.878;15.914;2023-07-08T04:05:16;11.90;99.90
39849;DHT22;25518;47.878;15.914;2023-07-08T04:08:06;11.50;99.90
39849;DHT22;25518;47.878;15.914;2023-07-08T04:10:55;11.80;99.90
39849;DHT22;25518;47.878;15.914;2023-07-08T04:13:45;11.80;99.90
39849;DHT22;25518;47.878;15.914;2023-07-08T04:16:44;11.70;99.90
39849;DHT22;25518;47.878;15.914;2023-07-08T04:19:35;11.80;99.90
39849;DHT22;25518;47.878;15.914;2023-07-08T04:22:25;11.80;99.90
39849;DHT22;25518;47.878;15.914;2023-07-08T04:25:15;11.90;99.90
39849;DHT22;25518;47.878;15.914;2023-07-08T04:28:04;11.80;99.90
39849;DHT22;25518;47.878;15.914;2023-07-08T04:30:53;11.90;99.90
39849;DHT22;25518;47.878;15.914;2023-07-08T04:33:43;12.20;99.90
39849;DHT22;25518;47.878;15.914;2023-07-08T04:36:33;12.30;99.90
39849;DHT22;25518;47.878;15.914;2023-07-08T04:39:23;12.20;99.90
39849;DHT22;25518;47.878;15.914;2023-07-08T04:42:14;12.10;99.90
39849;DHT22;25518;47.878;15.914;2023-07-08T04:45:07;12.10;99.90
39849;DHT22;25518;47.878;15.914;2023-07-08T04:47:57;12.00;99.90
39849;DHT22;25518;47.878;15.914;2023-07-08T04:50:49;11.70;99.90
39849;DHT22;25518;47.878;15.914;2023-07-08T04:53:38;11.90;99.90
39849;DHT22;25518;47.878;15.914;2023-07-08T04:56:39;12.20;99.90
39849;DHT22;25518;47.878;15.914;2023-07-08T04:59:29;12.20;99.90
39849;DHT22;25518;47.878;15.914;2023-07-08T05:02:23;12.50;99.90
39849;DHT22;25518;47.878;15.914;2023-07-08T05:05:13;12.40;99.90
39849;DHT22;25518;47.878;15.914;2023-07-08T05:08:02;12.20;99.90
39849;DHT22;25518;47.878;15.914;2023-07-08T05:10:52;12.50;99.90
39849;DHT22;25518;47.878;15.914;2023-07-08T05:13:42;12.20;99.90
39849;DHT22;25518;47.878;15.914;2023-07-08T05:16:33;12.40;99.90
39849;DHT22;25518;47.878;15.914;2023-07-08T05:19:25;12.30;99.90
39849;DHT22;25518;47.878;15.914;2023-07-08T05:22:14;12.20;99.90
39849;DHT22;25518;47.878;15.914;2023-07-08T05:25:04;12.30;99.90
39849;DHT22;25518;47.878;15.914;2023-07-08T05:27:54;12.50;99.90
39849;DHT22;25518;47.878;15.914;2023-07-08T05:30:44;12.20;99.90
39849;DHT22;25518;47.878;15.914;2023-07-08T05:33:34;12.00;99.90
39849;DHT22;25518;47.878;15.914;2023-07-08T05:36:23;12.00;99.90
39849;DHT22;25518;47.878;15.914;2023-07-08T05:39:13;12.40;99.90
39849;DHT22;25518;47.878;15.914;2023-07-08T05:42:02;12.20;99.90
39849;DHT22;25518;47.878;15.914;2023-07-08T05:44:52;12.70;99.90
39849;DHT22;25518;47.878;15.914;2023-07-08T05:47:44;12.80;99.90
39849;DHT22;25518;47.878;15.914;2023-07-08T05:50:33;12.50;99.90
39849;DHT22;25518;47.878;15.914;2023-07-08T05:53:23;12.50;99.90
39849;DHT22;25518;47.878;15.914;2023-07-08T05:56:13;12.60;99.90
39849;DHT22;25518;47.878;15.914;2023-07-08T05:59:03;12.90;99.90
39849;DHT22;25518;47.878;15.914;2023-07-08T06:01:53;13.20;99.90
39849;DHT22;25518;47.878;15.914;2023-07-08T06:04:42;13.20;99.90
39849;DHT22;25518;47.878;15.914;2023-07-08T06:07:32;13.10;99.90
39849;DHT22;25518;47.878;15.914;2023-07-08T06:10:21;13.10;99.90
39849;DHT22;25518;47.878;15.914;2023-07-08T06:13:12;13.40;99.90
39849;DHT22;25518;47.878;15.914;2023-07-08T06:16:01;13.40;99.90
39849;DHT22;25518;47.878;15.914;2023-07-08T06:18:51;13.40;99.90
39849;DHT22;25518;47.878;15.914;2023-07-08T06:21:41;13.70;99.90
39849;DHT22;25518;47.878;15.914;2023-07-08T06:24:36;14.00;99.90
39849;DHT22;25518;47.878;15.914;2023-07-08T06:27:25;13.90;99.90
39849;DHT22;25518;47.878;15.914;2023-07-08T06:30:15;13.90;99.90
39849;DHT22;25518;47.878;15.914;2023-07-08T06:33:05;14.00;99.90
39849;DHT22;25518;47.878;15.914;2023-07-08T06:35:55;14.30;99.90
39849;DHT22;25518;47.878;15.914;2023-07-08T06:38:44;14.50;99.90
39849;DHT22;25518;47.878;15.914;2023-07-08T06:41:34;14.70;99.90
39849;DHT22;25518;47.878;15.914;2023-07-08T06:44:23;14.80;99.90
39849;DHT22;25518;47.878;15.914;2023-07-08T06:47:14;14.90;99.90
39849;DHT22;25518;47.878;15.914;2023-07-08T06:50:05;15.20;99.90
39849;DHT22;25518;47.878;15.914;2023-07-08T06:52:56;15.30;99.90
39849;DHT22;25518;47.878;15.914;2023-07-08T06:55:46;15.40;99.90
39849;DHT22;25518;47.878;15.914;2023-07-08T06:58:36;15.60;99.90
39849;DHT22;25518;47.878;15.914;2023-07-08T07:01:25;15.70;99.90
39849;DHT22;25518;47.878;15.914;2023-07-08T07:04:15;15.80;99.90
39849;DHT22;25518;47.878;15.914;2023-07-08T07:07:05;16.00;99.90
39849;DHT22;25518;47.878;15.914;2023-07-08T07:09:55;16.10;99.90
39849;DHT22;25518;47.878;15.914;2023-07-08T07:12:44;16.40;99.90
39849;DHT22;25518;47.878;15.914;2023-07-08T07:15:34;16.60;99.90
39849;DHT22;25518;47.878;15.914;2023-07-08T07:18:24;16.90;99.90
39849;DHT22;25518;47.878;15.914;2023-07-08T07:21:13;17.30;99.90
39849;DHT22;25518;47.878;15.914;2023-07-08T07:24:03;17.70;99.90
39849;DHT22;25518;47.878;15.914;2023-07-08T07:26:53;18.10;99.90
39849;DHT22;25518;47.878;15.914;2023-07-08T07:29:46;18.60;99.90
39849;DHT22;25518;47.878;15.914;2023-07-08T07:32:36;19.00;99.90
39849;DHT22;25518;47.878;15.914;2023-07-08T07:35:26;19.30;99.90
39849;DHT22;25518;47.878;15.914;2023-07-08T07:38:16;19.70;99.90
39849;DHT22;25518;47.878;15.914;2023-07-08T07:41:06;19.90;99.90
39849;DHT22;25518;47.878;15.914;2023-07-08T07:43:56;20.10;99.90
39849;DHT22;25518;47.878;15.914;2023-07-08T07:46:45;20.10;99.90
39849;DHT22;25518;47.878;15.914;2023-07-08T07:49:36;20.10;99.90
39849;DHT22;25518;47.878;15.914;2023-07-08T07:52:26;20.40;99.90
39849;DHT22;25518;47.878;15.914;2023-07-08T07:55:16;20.90;99.90
39849;DHT22;25518;47.878;15.914;2023-07-08T07:58:05;21.40;99.90
39849;DHT22;25518;47.878;15.914;2023-07-08T08:00:55;21.70;99.90
39849;DHT22;25518;47.878;15.914;2023-07-08T08:03:44;22.00;99.90
39849;DHT22;25518;47.878;15.914;2023-07-08T08:06:34;22.10;99.90
39849;DHT22;25518;47.878;15.914;2023-07-08T08:09:23;22.20;99.90
39849;DHT22;25518;47.878;15.914;2023-07-08T08:12:13;22.40;99.90
39849;DHT22;25518;47.878;15.914;2023-07-08T08:15:03;22.60;99.90
39849;DHT22;25518;47.878;15.914;2023-07-08T08:17:53;22.60;99.90
39849;DHT22;25518;47.878;15.914;2023-07-08T08:20:42;22.80;99.90
39849;DHT22;25518;47.878;15.914;2023-07-08T08:23:32;23.00;99.90
39849;DHT22;25518;47.878;15.914;2023-07-08T08:26:21;23.10;99.90
39849;DHT22;25518;47.878;15.914;2023-07-08T08:29:11;23.20;99.90
39849;DHT22;25518;47.878;15.914;2023-07-08T08:32:01;23.10;99.90
39849;DHT22;25518;47.878;15.914;2023-07-08T08:34:50;23.40;99.90
39849;DHT22;25518;47.878;15.914;2023-07-08T08:37:40;23.50;99.90
39849;DHT22;25518;47.878;15.914;2023-07-08T08:40:31;23.70;99.90
39849;DHT22;25518;47.878;15.914;2023-07-08T08:43:32;23.70;99.90
39849;DHT22;25518;47.878;15.914;2023-07-08T08:49:48;24.10;99.90
39849;DHT22;25518;47.878;15.914;2023-07-08T08:52:41;24.20;99.90
39849;DHT22;25518;47.878;15.914;2023-07-08T08:55:32;24.30;99.90
39849;DHT22;25518;47.878;15.914;2023-07-08T08:58:43;24.30;99.90
39849;DHT22;25518;47.878;15.914;2023-07-08T09:01:33;24.50;99.90
39849;DHT22;25518;47.878;15.914;2023-07-08T09:04:28;24.70;99.90
39849;DHT22;25518;47.878;15.914;2023-07-08T09:07:22;24.90;99.90
39849;DHT22;25518;47.878;15.914;2023-07-08T09:10:39;24.70;99.90
39849;DHT22;25518;47.878;15.914;2023-07-08T09:13:32;24.40;99.90
39849;DHT22;25518;47.878;15.914;2023-07-08T09:16:29;24.40;99.90
39849;DHT22;25518;47.878;15.914;2023-07-08T09:19:29;24.30;99.90
39849;DHT22;25518;47.878;15.914;2023-07-08T09:28:15;24.60;99.90
39849;DHT22;25518;47.878;15.914;2023-07-08T09:31:06;24.00;99.90
39849;DHT22;25518;47.878;15.914;2023-07-08T09:34:16;24.40;99.90
39849;DHT22;25518;47.878;15.914;2023-07-08T09:43:23;24.70;99.90
39849;DHT22;25518;47.878;15.914;2023-07-08T09:46:15;24.70;99.90
39849;DHT22;25518;47.878;15.914;2023-07-08T09:49:23;24.80;99.90
39849;DHT22;25518;47.878;15.914;2023-07-08T09:52:13;24.90;99.90
39849;DHT22;25518;47.878;15.914;2023-07-08T09:55:03;25.00;99.90
39849;DHT22;25518;47.878;15.914;2023-07-08T09:57:54;24.90;99.90
39849;DHT22;25518;47.878;15.914;2023-07-08T10:00:51;25.00;99.90
39849;DHT22;25518;47.878;15.914;2023-07-08T10:03:43;25.10;99.90
39849;DHT22;25518;47.878;15.914;2023-07-08T10:06:34;25.10;99.90
39849;DHT22;25518;47.878;15.914;2023-07-08T10:09:25;25.10;99.90
39849;DHT22;25518;47.878;15.914;2023-07-08T10:12:14;25.10;99.90
39849;DHT22;25518;47.878;15.914;2023-07-08T10:15:18;25.10;99.90
39849;DHT22;25518;47.878;15.914;2023-07-08T10:18:14;25.10;99.90
39849;DHT22;25518;47.878;15.914;2023-07-08T10:21:45;25.20;99.90
39849;DHT22;25518;47.878;15.914;2023-07-08T10:28:19;25.50;99.90
39849;DHT22;25518;47.878;15.914;2023-07-08T10:38:02;25.70;99.90
39849;DHT22;25518;47.878;15.914;2023-07-08T10:43:56;26.00;99.90
39849;DHT22;25518;47.878;15.914;2023-07-08T10:59:19;26.30;99.90
39849;DHT22;25518;47.878;15.914;2023-07-08T11:05:55;26.30;99.90
39849;DHT22;25518;47.878;15.914;2023-07-08T11:08:55;26.00;99.90
39849;DHT22;25518;47.878;15.914;2023-07-08T11:14:56;26.20;99.90
39849;DHT22;25518;47.878;15.914;2023-07-08T11:17:54;26.50;99.90
39849;DHT22;25518;47.878;15.914;2023-07-08T11:21:08;26.70;99.90
39849;DHT22;25518;47.878;15.914;2023-07-08T11:27:24;27.30;99.90
39849;DHT22;25518;47.878;15.914;2023-07-08T11:30:22;27.30;99.90
39849;DHT22;25518;47.878;15.914;2023-07-08T11:33:15;27.40;97.30
39849;DHT22;25518;47.878;15.914;2023-07-08T11:36:07;27.30;97.10
39849;DHT22;25518;47.878;15.914;2023-07-08T11:38:58;27.20;98.50
39849;DHT22;25518;47.878;15.914;2023-07-08T11:41:52;27.30;96.40
39849;DHT22;25518;47.878;15.914;2023-07-08T11:44:49;27.10;97.50
39849;DHT22;25518;47.878;15.914;2023-07-08T11:47:45;27.10;97.70
39849;DHT22;25518;47.878;15.914;2023-07-08T11:50:39;27.30;97.80
39849;DHT22;25518;47.878;15.914;2023-07-08T11:56:22;27.10;97.70
39849;DHT22;25518;47.878;15.914;2023-07-08T11:59:17;27.20;96.10
39849;DHT22;25518;47.878;15.914;2023-07-08T12:02:17;27.10;99.10
39849;DHT22;25518;47.878;15.914;2023-07-08T12:05:14;27.20;96.80
39849;DHT22;25518;47.878;15.914;2023-07-08T12:08:13;27.20;97.00
39849;DHT22;25518;47.878;15.914;2023-07-08T12:11:10;25.20;96.30
39849;DHT22;25518;47.878;15.914;2023-07-08T12:14:02;27.20;97.60
39849;DHT22;25518;47.878;15.914;2023-07-08T12:16:52;27.50;95.70
39849;DHT22;25518;47.878;15.914;2023-07-08T12:19:43;27.50;95.90
39849;DHT22;25518;47.878;15.914;2023-07-08T12:22:34;27.60;97.30
39849;DHT22;25518;47.878;15.914;2023-07-08T12:25:29;27.60;96.40
39849;DHT22;25518;47.878;15.914;2023-07-08T12:28:21;27.60;96.40
39849;DHT22;25518;47.878;15.914;2023-07-08T12:31:21;27.60;97.00
39849;DHT22;25518;47.878;15.914;2023-07-08T12:34:14;27.70;94.20
39849;DHT22;25518;47.878;15.914;2023-07-08T12:37:10;27.40;95.70
39849;DHT22;25518;47.878;15.914;2023-07-08T12:40:01;27.40;95.70
39849;DHT22;25518;47.878;15.914;2023-07-08T12:42:57;27.60;95.40
39849;DHT22;25518;47.878;15.914;2023-07-08T12:45:49;27.80;95.50
39849;DHT22;25518;47.878;15.914;2023-07-08T12:48:39;27.90;95.80
39849;DHT22;25518;47.878;15.914;2023-07-08T12:51:29;27.90;94.90
39849;DHT22;25518;47.878;15.914;2023-07-08T12:54:18;28.00;94.40
39849;DHT22;25518;47.878;15.914;2023-07-08T12:57:08;28.00;95.20
39849;DHT22;25518;47.878;15.914;2023-07-08T12:59:59;26.00;93.90
39849;DHT22;25518;47.878;15.914;2023-07-08T13:03:13;27.50;95.40
39849;DHT22;25518;47.878;15.914;2023-07-08T13:06:04;27.50;93.90
39849;DHT22;25518;47.878;15.914;2023-07-08T13:08:54;25.80;94.20
39849;DHT22;25518;47.878;15.914;2023-07-08T13:11:48;27.30;93.40
39849;DHT22;25518;47.878;15.914;2023-07-08T13:14:38;27.50;94.20
39849;DHT22;25518;47.878;15.914;2023-07-08T13:17:32;27.70;93.60
39849;DHT22;25518;47.878;15.914;2023-07-08T13:20:24;27.70;94.30
39849;DHT22;25518;47.878;15.914;2023-07-08T13:23:15;27.70;92.50
39849;DHT22;25518;47.878;15.914;2023-07-08T13:26:15;27.70;93.90
39849;DHT22;25518;47.878;15.914;2023-07-08T13:29:13;27.90;94.30
39849;DHT22;25518;47.878;15.914;2023-07-08T13:32:06;27.90;92.30
39849;DHT22;25518;47.878;15.914;2023-07-08T13:34:55;27.80;92.30
39849;DHT22;25518;47.878;15.914;2023-07-08T13:37:46;27.90;93.60
39849;DHT22;25518;47.878;15.914;2023-07-08T13:40:46;28.00;92.70
39849;DHT22;25518;47.878;15.914;2023-07-08T13:43:39;28.10;92.50
39849;DHT22;25518;47.878;15.914;2023-07-08T13:46:40;28.10;92.70
39849;DHT22;25518;47.878;15.914;2023-07-08T13:49:40;28.10;92.30
39849;DHT22;25518;47.878;15.914;2023-07-08T13:52:33;28.10;93.50
39849;DHT22;25518;47.878;15.914;2023-07-08T13:55:23;28.10;93.70
39849;DHT22;25518;47.878;15.914;2023-07-08T13:58:17;28.10;92.40
39849;DHT22;25518;47.878;15.914;2023-07-08T14:01:16;28.30;93.10
39849;DHT22;25518;47.878;15.914;2023-07-08T14:04:07;28.20;92.20
39849;DHT22;25518;47.878;15.914;2023-07-08T14:06:56;28.00;92.30
39849;DHT22;25518;47.878;15.914;2023-07-08T14:09:46;28.00;91.80
39849;DHT22;25518;47.878;15.914;2023-07-08T14:12:35;28.10;92.80
39849;DHT22;25518;47.878;15.914;2023-07-08T14:15:25;28.20;93.20
39849;DHT22;25518;47.878;15.914;2023-07-08T14:18:15;28.20;91.90
39849;DHT22;25518;47.878;15.914;2023-07-08T14:21:04;28.10;93.00
39849;DHT22;25518;47.878;15.914;2023-07-08T14:23:54;28.20;92.50
39849;DHT22;25518;47.878;15.914;2023-07-08T14:26:44;28.00;92.10
39849;DHT22;25518;47.878;15.914;2023-07-08T14:29:34;27.90;93.60
39849;DHT22;25518;47.878;15.914;2023-07-08T14:32:26;28.00;92.60
39849;DHT22;25518;47.878;15.914;2023-07-08T14:35:24;28.00;92.30
39849;DHT22;25518;47.878;15.914;2023-07-08T14:38:14;27.30;95.00
39849;DHT22;25518;47.878;15.914;2023-07-08T14:41:04;27.70;92.50
39849;DHT22;25518;47.878;15.914;2023-07-08T14:43:55;27.70;92.00
39849;DHT22;25518;47.878;15.914;2023-07-08T14:46:44;27.60;91.50
39849;DHT22;25518;47.878;15.914;2023-07-08T14:49:34;27.50;91.40
39849;DHT22;25518;47.878;15.914;2023-07-08T14:52:23;27.40;92.30
39849;DHT22;25518;47.878;15.914;2023-07-08T14:55:13;27.30;93.20
39849;DHT22;25518;47.878;15.914;2023-07-08T14:58:04;27.30;93.00
39849;DHT22;25518;47.878;15.914;2023-07-08T15:00:56;27.40;93.30
39849;DHT22;25518;47.878;15.914;2023-07-08T15:03:47;27.40;93.10
39849;DHT22;25518;47.878;15.914;2023-07-08T15:06:36;27.50;93.30
39849;DHT22;25518;47.878;15.914;2023-07-08T15:09:26;27.50;93.20
39849;DHT22;25518;47.878;15.914;2023-07-08T15:12:15;27.60;92.50
39849;DHT22;25518;47.878;15.914;2023-07-08T15:15:13;27.70;93.30
39849;DHT22;25518;47.878;15.914;2023-07-08T15:18:12;27.80;91.60
39849;DHT22;25518;47.878;15.914;2023-07-08T15:21:03;27.80;92.70
39849;DHT22;25518;47.878;15.914;2023-07-08T15:23:53;27.80;91.40
39849;DHT22;25518;47.878;15.914;2023-07-08T15:26:46;27.80;93.60
39849;DHT22;25518;47.878;15.914;2023-07-08T15:29:36;27.90;92.80
39849;DHT22;25518;47.878;15.914;2023-07-08T15:32:26;28.10;92.40
39849;DHT22;25518;47.878;15.914;2023-07-08T15:35:18;28.20;91.40
39849;DHT22;25518;47.878;15.914;2023-07-08T15:38:08;28.40;91.60
39849;DHT22;25518;47.878;15.914;2023-07-08T15:40:57;28.40;91.70
39849;DHT22;25518;47.878;15.914;2023-07-08T15:43:48;28.40;92.70
39849;DHT22;25518;47.878;15.914;2023-07-08T15:46:42;28.40;91.50
39849;DHT22;25518;47.878;15.914;2023-07-08T15:49:33;28.20;91.60
39849;DHT22;25518;47.878;15.914;2023-07-08T15:52:23;28.00;91.60
39849;DHT22;25518;47.878;15.914;2023-07-08T15:55:16;27.90;92.50
39849;DHT22;25518;47.878;15.914;2023-07-08T15:58:19;27.80;91.80
39849;DHT22;25518;47.878;15.914;2023-07-08T16:01:16;27.70;92.30
39849;DHT22;25518;47.878;15.914;2023-07-08T16:04:25;27.60;92.60
39849;DHT22;25518;47.878;15.914;2023-07-08T16:07:15;27.70;92.70
39849;DHT22;25518;47.878;15.914;2023-07-08T16:10:05;27.70;92.50
39849;DHT22;25518;47.878;15.914;2023-07-08T16:12:55;27.80;92.30
39849;DHT22;25518;47.878;15.914;2023-07-08T16:15:47;27.90;92.40
39849;DHT22;25518;47.878;15.914;2023-07-08T16:18:38;27.90;92.90
39849;DHT22;25518;47.878;15.914;2023-07-08T16:21:27;28.10;93.00
39849;DHT22;25518;47.878;15.914;2023-07-08T16:24:17;28.20;91.70
39849;DHT22;25518;47.878;15.914;2023-07-08T16:27:08;28.30;91.40
39849;DHT22;25518;47.878;15.914;2023-07-08T16:29:59;25.90;90.50
39849;DHT22;25518;47.878;15.914;2023-07-08T16:32:49;28.30;92.40
39849;DHT22;25518;47.878;15.914;2023-07-08T16:35:39;28.40;92.00
39849;DHT22;25518;47.878;15.914;2023-07-08T16:38:28;28.30;92.00
39849;DHT22;25518;47.878;15.914;2023-07-08T16:41:21;28.30;91.50
39849;DHT22;25518;47.878;15.914;2023-07-08T16:44:14;28.30;91.50
39849;DHT22;25518;47.878;15.914;2023-07-08T16:47:07;27.80;91.50
39849;DHT22;25518;47.878;15.914;2023-07-08T16:49:56;27.60;92.30
39849;DHT22;25518;47.878;15.914;2023-07-08T16:52:46;27.30;93.10
39849;DHT22;25518;47.878;15.914;2023-07-08T16:55:35;27.10;93.20
39849;DHT22;25518;47.878;15.914;2023-07-08T16:58:25;27.10;94.00
39849;DHT22;25518;47.878;15.914;2023-07-08T17:01:21;27.00;93.60
39849;DHT22;25518;47.878;15.914;2023-07-08T17:04:12;26.80;93.50
39849;DHT22;25518;47.878;15.914;2023-07-08T17:07:02;27.00;94.30
39849;DHT22;25518;47.878;15.914;2023-07-08T17:09:51;27.60;92.60
39849;DHT22;25518;47.878;15.914;2023-07-08T17:12:42;28.60;92.10
39849;DHT22;25518;47.878;15.914;2023-07-08T17:15:32;29.90;91.90
39849;DHT22;25518;47.878;15.914;2023-07-08T17:18:23;30.70;88.50
39849;DHT22;25518;47.878;15.914;2023-07-08T17:21:15;31.00;88.90
39849;DHT22;25518;47.878;15.914;2023-07-08T17:24:07;31.50;88.40
39849;DHT22;25518;47.878;15.914;2023-07-08T17:26:57;31.80;87.90
39849;DHT22;25518;47.878;15.914;2023-07-08T17:29:46;31.50;87.00
39849;DHT22;25518;47.878;15.914;2023-07-08T17:32:36;31.90;84.10
39849;DHT22;25518;47.878;15.914;2023-07-08T17:35:26;30.70;85.60
39849;DHT22;25518;47.878;15.914;2023-07-08T17:38:38;29.80;87.50
39849;DHT22;25518;47.878;15.914;2023-07-08T17:41:30;28.80;90.00
39849;DHT22;25518;47.878;15.914;2023-07-08T17:44:20;27.80;90.80
39849;DHT22;25518;47.878;15.914;2023-07-08T17:47:11;27.20;93.00
39849;DHT22;25518;47.878;15.914;2023-07-08T17:50:13;26.80;93.00
39849;DHT22;25518;47.878;15.914;2023-07-08T17:53:02;26.40;94.60
39849;DHT22;25518;47.878;15.914;2023-07-08T17:55:52;25.90;95.30
39849;DHT22;25518;47.878;15.914;2023-07-08T17:58:41;25.40;95.20
39849;DHT22;25518;47.878;15.914;2023-07-08T18:01:31;24.90;95.90
39849;DHT22;25518;47.878;15.914;2023-07-08T18:04:23;25.00;97.10
39849;DHT22;25518;47.878;15.914;2023-07-08T18:07:15;24.80;98.20
39849;DHT22;25518;47.878;15.914;2023-07-08T18:10:05;24.80;98.40
39849;DHT22;25518;47.878;15.914;2023-07-08T18:12:56;24.50;99.20
39849;DHT22;25518;47.878;15.914;2023-07-08T18:15:46;24.20;99.10
39849;DHT22;25518;47.878;15.914;2023-07-08T18:18:36;24.00;99.80
39849;DHT22;25518;47.878;15.914;2023-07-08T18:21:29;23.90;99.80
39849;DHT22;25518;47.878;15.914;2023-07-08T18:24:18;23.60;99.90
39849;DHT22;25518;47.878;15.914;2023-07-08T18:27:13;23.50;98.30
39849;DHT22;25518;47.878;15.914;2023-07-08T18:30:04;23.30;99.50
39849;DHT22;25518;47.878;15.914;2023-07-08T18:32:54;23.10;99.90
39849;DHT22;25518;47.878;15.914;2023-07-08T18:35:45;23.00;99.90
39849;DHT22;25518;47.878;15.914;2023-07-08T18:38:35;22.90;99.90
39849;DHT22;25518;47.878;15.914;2023-07-08T18:41:29;22.70;99.90
39849;DHT22;25518;47.878;15.914;2023-07-08T18:44:26;22.50;99.90
39849;DHT22;25518;47.878;15.914;2023-07-08T18:47:16;22.30;99.90
39849;DHT22;25518;47.878;15.914;2023-07-08T18:50:07;22.10;99.90
39849;DHT22;25518;47.878;15.914;2023-07-08T18:52:58;22.00;99.90
39849;DHT22;25518;47.878;15.914;2023-07-08T18:55:47;21.90;99.90
39849;DHT22;25518;47.878;15.914;2023-07-08T18:58:37;21.80;99.90
39849;DHT22;25518;47.878;15.914;2023-07-08T19:01:26;21.70;99.90
39849;DHT22;25518;47.878;15.914;2023-07-08T19:04:25;21.40;99.90